sensor_id;sensor_type;location;lat;lon;timestamp;temperature;humidity
13462;DHT22;6803;45.264;5.468;2022-08-21T00:02:15;18.60;99.90
13462;DHT22;6803;45.264;5.468;2022-08-21T00:04:46;18.70;99.90
13462;DHT22;6803;45.264;5.468;2022-08-21T00:07:19;18.90;99.90
13462;DHT22;6803;45.264;5.468;2022-08-21T00:09:52;19.10;99.90
13462;DHT22;6803;45.264;5.468;2022-08-21T00:12:23;19.00;99.90
13462;DHT22;6803;45.264;5.468;2022-08-21T00:14:53;18.70;99.90
13462;DHT22;6803;45.264;5.468;2022-08-21T00:17:26;18.70;99.90
13462;DHT22;6803;45.264;5.468;2022-08-21T00:19:56;18.60;99.90
13462;DHT22;6803;45.264;5.468;2022-08-21T00:22:27;18.70;99.90
13462;DHT22;6803;45.264;5.468;2022-08-21T00:24:58;18.60;99.90
13462;DHT22;6803;45.264;5.468;2022-08-21T00:27:28;18.30;99.90
13462;DHT22;6803;45.264;5.468;2022-08-21T00:29:59;18.30;99.90
13462;DHT22;6803;45.264;5.468;2022-08-21T00:32:31;18.30;99.90
13462;DHT22;6803;45.264;5.468;2022-08-21T00:35:03;18.40;99.90
13462;DHT22;6803;45.264;5.468;2022-08-21T00:37:34;18.30;99.90
13462;DHT22;6803;45.264;5.468;2022-08-21T00:40:09;18.20;99.90
13462;DHT22;6803;45.264;5.468;2022-08-21T00:42:40;18.10;99.90
13462;DHT22;6803;45.264;5.468;2022-08-21T00:45:12;18.20;99.90
13462;DHT22;6803;45.264;5.468;2022-08-21T00:47:42;18.40;99.90
13462;DHT22;6803;45.264;5.468;2022-08-21T00:50:13;18.40;99.90
13462;DHT22;6803;45.264;5.468;2022-08-21T00:52:46;18.40;99.90
13462;DHT22;6803;45.264;5.468;2022-08-21T00:55:19;18.30;99.90
13462;DHT22;6803;45.264;5.468;2022-08-21T00:57:54;18.20;99.90
13462;DHT22;6803;45.264;5.468;2022-08-21T01:00:28;18.10;99.90
13462;DHT22;6803;45.264;5.468;2022-08-21T01:03:00;18.00;99.90
13462;DHT22;6803;45.264;5.468;2022-08-21T01:05:33;17.70;99.90
13462;DHT22;6803;45.264;5.468;2022-08-21T01:08:05;17.60;99.90
13462;DHT22;6803;45.264;5.468;2022-08-21T01:10:37;17.60;99.90
13462;DHT22;6803;45.264;5.468;2022-08-21T01:13:10;17.70;99.90
13462;DHT22;6803;45.264;5.468;2022-08-21T01:15:45;17.60;99.90
13462;DHT22;6803;45.264;5.468;2022-08-21T01:18:17;17.70;99.90
13462;DHT22;6803;45.264;5.468;2022-08-21T01:21:02;17.80;99.90
13462;DHT22;6803;45.264;5.468;2022-08-21T01:23:33;17.90;99.90
13462;DHT22;6803;45.264;5.468;2022-08-21T01:26:06;17.70;99.90
13462;DHT22;6803;45.264;5.468;2022-08-21T01:28:40;17.50;99.90
13462;DHT22;6803;45.264;5.468;2022-08-21T01:31:13;17.40;99.90
13462;DHT22;6803;45.264;5.468;2022-08-21T01:33:46;17.50;99.90
13462;DHT22;6803;45.264;5.468;2022-08-21T01:36:17;17.30;99.90
13462;DHT22;6803;45.264;5.468;2022-08-21T01:38:49;17.40;99.90
13462;DHT22;6803;45.264;5.468;2022-08-21T01:41:20;17.40;99.90
13462;DHT22;6803;45.264;5.468;2022-08-21T01:43:50;17.40;99.90
13462;DHT22;6803;45.264;5.468;2022-08-21T01:46:21;17.40;99.90
13462;DHT22;6803;45.264;5.468;2022-08-21T01:48:52;17.40;99.90
13462;DHT22;6803;45.264;5.468;2022-08-21T01:51:23;17.30;99.90
13462;DHT22;6803;45.264;5.468;2022-08-21T01:53:53;17.30;99.90
13462;DHT22;6803;45.264;5.468;2022-08-21T01:56:25;17.10;99.90
13462;DHT22;6803;45.264;5.468;2022-08-21T01:58:57;17.00;99.90
13462;DHT22;6803;45.264;5.468;2022-08-21T02:01:27;16.90;99.90
13462;DHT22;6803;45.264;5.468;2022-08-21T02:03:58;16.90;99.90
13462;DHT22;6803;45.264;5.468;2022-08-21T02:06:29;16.70;99.90
13462;DHT22;6803;45.264;5.468;2022-08-21T02:09:00;16.60;99.90
13462;DHT22;6803;45.264;5.468;2022-08-21T02:11:30;16.70;99.90
13462;DHT22;6803;45.264;5.468;2022-08-21T02:14:01;16.80;99.90
13462;DHT22;6803;45.264;5.468;2022-08-21T02:16:32;16.70;99.90
13462;DHT22;6803;45.264;5.468;2022-08-21T02:19:03;16.70;99.90
13462;DHT22;6803;45.264;5.468;2022-08-21T02:21:34;16.80;99.90
13462;DHT22;6803;45.264;5.468;2022-08-21T02:24:06;17.00;99.90
13462;DHT22;6803;45.264;5.468;2022-08-21T02:26:37;17.10;99.90
13462;DHT22;6803;45.264;5.468;2022-08-21T02:29:08;17.20;99.90
13462;DHT22;6803;45.264;5.468;2022-08-21T02:31:38;17.30;99.90
13462;DHT22;6803;45.264;5.468;2022-08-21T02:34:09;17.20;99.90
13462;DHT22;6803;45.264;5.468;2022-08-21T02:36:40;17.20;99.90
13462;DHT22;6803;45.264;5.468;2022-08-21T02:39:10;17.10;99.90
13462;DHT22;6803;45.264;5.468;2022-08-21T02:41:41;17.10;99.90
13462;DHT22;6803;45.264;5.468;2022-08-21T02:44:12;17.00;99.90
13462;DHT22;6803;45.264;5.468;2022-08-21T02:46:43;17.00;99.90
13462;DHT22;6803;45.264;5.468;2022-08-21T02:49:13;16.90;99.90
13462;DHT22;6803;45.264;5.468;2022-08-21T02:51:44;16.80;99.90
13462;DHT22;6803;45.264;5.468;2022-08-21T02:54:15;16.70;99.90
13462;DHT22;6803;45.264;5.468;2022-08-21T02:56:45;16.70;99.90
13462;DHT22;6803;45.264;5.468;2022-08-21T02:59:16;16.70;99.90
13462;DHT22;6803;45.264;5.468;2022-08-21T03:01:47;16.70;99.90
13462;DHT22;6803;45.264;5.468;2022-08-21T03:04:18;16.70;99.90
13462;DHT22;6803;45.264;5.468;2022-08-21T03:06:49;16.70;99.90
13462;DHT22;6803;45.264;5.468;2022-08-21T03:09:19;16.70;99.90
13462;DHT22;6803;45.264;5.468;2022-08-21T03:11:50;16.80;99.90
13462;DHT22;6803;45.264;5.468;2022-08-21T03:14:21;17.00;99.90
13462;DHT22;6803;45.264;5.468;2022-08-21T03:16:51;17.00;99.90
13462;DHT22;6803;45.264;5.468;2022-08-21T03:19:22;16.90;99.90
13462;DHT22;6803;45.264;5.468;2022-08-21T03:21:53;16.70;99.90
13462;DHT22;6803;45.264;5.468;2022-08-21T03:24:23;16.50;99.90
13462;DHT22;6803;45.264;5.468;2022-08-21T03:26:54;16.30;99.90
13462;DHT22;6803;45.264;5.468;2022-08-21T03:29:25;16.20;99.90
13462;DHT22;6803;45.264;5.468;2022-08-21T03:31:55;16.20;99.90
13462;DHT22;6803;45.264;5.468;2022-08-21T03:34:26;16.00;99.90
13462;DHT22;6803;45.264;5.468;2022-08-21T03:36:58;15.90;99.90
13462;DHT22;6803;45.264;5.468;2022-08-21T03:39:29;15.80;99.90
13462;DHT22;6803;45.264;5.468;2022-08-21T03:42:00;15.80;99.90
13462;DHT22;6803;45.264;5.468;2022-08-21T03:44:30;15.80;99.90
13462;DHT22;6803;45.264;5.468;2022-08-21T03:47:02;15.90;99.90
13462;DHT22;6803;45.264;5.468;2022-08-21T03:49:33;15.80;99.90
13462;DHT22;6803;45.264;5.468;2022-08-21T03:52:04;15.90;99.90
13462;DHT22;6803;45.264;5.468;2022-08-21T03:54:35;15.80;99.90
13462;DHT22;6803;45.264;5.468;2022-08-21T03:57:06;15.80;99.90
13462;DHT22;6803;45.264;5.468;2022-08-21T03:59:37;15.60;99.90
13462;DHT22;6803;45.264;5.468;2022-08-21T04:02:09;15.70;99.90
13462;DHT22;6803;45.264;5.468;2022-08-21T04:04:40;15.80;99.90
13462;DHT22;6803;45.264;5.468;2022-08-21T04:07:11;15.80;99.90
13462;DHT22;6803;45.264;5.468;2022-08-21T04:09:41;15.70;99.90
13462;DHT22;6803;45.264;5.468;2022-08-21T04:12:12;15.50;99.90
13462;DHT22;6803;45.264;5.468;2022-08-21T04:14:42;15.40;99.90
13462;DHT22;6803;45.264;5.468;2022-08-21T04:17:13;15.30;99.90
13462;DHT22;6803;45.264;5.468;2022-08-21T04:19:44;15.20;99.90
13462;DHT22;6803;45.264;5.468;2022-08-21T04:22:16;15.20;99.90
13462;DHT22;6803;45.264;5.468;2022-08-21T04:24:47;15.20;99.90
13462;DHT22;6803;45.264;5.468;2022-08-21T04:27:19;15.30;99.90
13462;DHT22;6803;45.264;5.468;2022-08-21T04:29:49;15.30;99.90
13462;DHT22;6803;45.264;5.468;2022-08-21T04:32:23;15.30;99.90
13462;DHT22;6803;45.264;5.468;2022-08-21T04:34:59;15.20;99.90
13462;DHT22;6803;45.264;5.468;2022-08-21T04:37:31;15.20;99.90
13462;DHT22;6803;45.264;5.468;2022-08-21T04:40:07;15.30;99.90
13462;DHT22;6803;45.264;5.468;2022-08-21T04:42:43;15.30;99.90
13462;DHT22;6803;45.264;5.468;2022-08-21T04:45:20;15.20;99.90
13462;DHT22;6803;45.264;5.468;2022-08-21T04:47:54;15.10;99.90
13462;DHT22;6803;45.264;5.468;2022-08-21T04:50:28;15.10;99.90
13462;DHT22;6803;45.264;5.468;2022-08-21T04:52:59;15.00;99.90
13462;DHT22;6803;45.264;5.468;2022-08-21T04:55:30;15.00;99.90
13462;DHT22;6803;45.264;5.468;2022-08-21T04:58:02;15.10;99.90
13462;DHT22;6803;45.264;5.468;2022-08-21T05:00:32;15.00;99.90
13462;DHT22;6803;45.264;5.468;2022-08-21T05:03:04;15.00;99.90
13462;DHT22;6803;45.264;5.468;2022-08-21T05:05:36;15.10;99.90
13462;DHT22;6803;45.264;5.468;2022-08-21T05:08:08;15.10;99.90
13462;DHT22;6803;45.264;5.468;2022-08-21T05:10:41;15.00;99.90
13462;DHT22;6803;45.264;5.468;2022-08-21T05:13:12;15.00;99.90
13462;DHT22;6803;45.264;5.468;2022-08-21T05:15:43;14.90;99.90
13462;DHT22;6803;45.264;5.468;2022-08-21T05:18:14;14.90;99.90
13462;DHT22;6803;45.264;5.468;2022-08-21T05:20:45;15.00;99.90
13462;DHT22;6803;45.264;5.468;2022-08-21T05:23:16;15.10;99.90
13462;DHT22;6803;45.264;5.468;2022-08-21T05:25:47;14.90;99.90
13462;DHT22;6803;45.264;5.468;2022-08-21T05:28:18;15.00;99.90
13462;DHT22;6803;45.264;5.468;2022-08-21T05:30:49;15.00;99.90
13462;DHT22;6803;45.264;5.468;2022-08-21T05:33:19;15.10;99.90
13462;DHT22;6803;45.264;5.468;2022-08-21T05:35:52;15.20;99.90
13462;DHT22;6803;45.264;5.468;2022-08-21T05:38:25;15.30;99.90
13462;DHT22;6803;45.264;5.468;2022-08-21T05:40:56;15.50;99.90
13462;DHT22;6803;45.264;5.468;2022-08-21T05:43:27;15.50;99.90
13462;DHT22;6803;45.264;5.468;2022-08-21T05:45:58;15.40;99.90
13462;DHT22;6803;45.264;5.468;2022-08-21T05:48:29;15.40;99.90
13462;DHT22;6803;45.264;5.468;2022-08-21T05:51:04;15.30;99.90
13462;DHT22;6803;45.264;5.468;2022-08-21T05:53:36;15.40;99.90
13462;DHT22;6803;45.264;5.468;2022-08-21T05:56:07;15.40;99.90
13462;DHT22;6803;45.264;5.468;2022-08-21T05:58:38;15.50;99.90
13462;DHT22;6803;45.264;5.468;2022-08-21T06:01:09;15.80;99.90
13462;DHT22;6803;45.264;5.468;2022-08-21T06:03:41;16.00;99.90
13462;DHT22;6803;45.264;5.468;2022-08-21T06:06:12;16.20;99.90
13462;DHT22;6803;45.264;5.468;2022-08-21T06:08:44;16.20;99.90
13462;DHT22;6803;45.264;5.468;2022-08-21T06:11:15;16.50;99.90
13462;DHT22;6803;45.264;5.468;2022-08-21T06:13:47;16.90;99.90
13462;DHT22;6803;45.264;5.468;2022-08-21T06:16:18;17.20;99.90
13462;DHT22;6803;45.264;5.468;2022-08-21T06:18:49;17.30;99.90
13462;DHT22;6803;45.264;5.468;2022-08-21T06:21:20;17.60;99.90
13462;DHT22;6803;45.264;5.468;2022-08-21T06:23:51;17.70;99.90
13462;DHT22;6803;45.264;5.468;2022-08-21T06:26:21;17.90;99.90
13462;DHT22;6803;45.264;5.468;2022-08-21T06:28:52;18.00;99.90
13462;DHT22;6803;45.264;5.468;2022-08-21T06:31:25;18.10;99.90
13462;DHT22;6803;45.264;5.468;2022-08-21T06:33:57;18.10;99.90
13462;DHT22;6803;45.264;5.468;2022-08-21T06:36:27;18.30;99.90
13462;DHT22;6803;45.264;5.468;2022-08-21T06:38:58;18.50;99.90
13462;DHT22;6803;45.264;5.468;2022-08-21T06:41:31;18.70;99.90
13462;DHT22;6803;45.264;5.468;2022-08-21T06:44:04;18.80;99.90
13462;DHT22;6803;45.264;5.468;2022-08-21T06:46:35;18.90;99.90
13462;DHT22;6803;45.264;5.468;2022-08-21T06:49:06;18.80;99.90
13462;DHT22;6803;45.264;5.468;2022-08-21T06:51:39;19.00;99.90
13462;DHT22;6803;45.264;5.468;2022-08-21T06:54:10;19.00;99.90
13462;DHT22;6803;45.264;5.468;2022-08-21T06:56:40;19.10;99.90
13462;DHT22;6803;45.264;5.468;2022-08-21T06:59:11;19.10;99.90
13462;DHT22;6803;45.264;5.468;2022-08-21T07:01:42;19.20;99.90
13462;DHT22;6803;45.264;5.468;2022-08-21T07:04:13;19.30;99.90
13462;DHT22;6803;45.264;5.468;2022-08-21T07:06:44;19.30;99.90
13462;DHT22;6803;45.264;5.468;2022-08-21T07:09:15;19.40;99.90
13462;DHT22;6803;45.264;5.468;2022-08-21T07:11:49;19.40;99.90
13462;DHT22;6803;45.264;5.468;2022-08-21T07:14:21;19.50;99.90
13462;DHT22;6803;45.264;5.468;2022-08-21T07:16:52;19.70;99.90
13462;DHT22;6803;45.264;5.468;2022-08-21T07:19:23;19.90;99.90
13462;DHT22;6803;45.264;5.468;2022-08-21T07:21:56;20.00;99.90
13462;DHT22;6803;45.264;5.468;2022-08-21T07:24:28;20.10;99.90
13462;DHT22;6803;45.264;5.468;2022-08-21T07:26:59;20.10;99.90
13462;DHT22;6803;45.264;5.468;2022-08-21T07:29:29;20.00;99.90
13462;DHT22;6803;45.264;5.468;2022-08-21T07:32:00;20.00;99.90
13462;DHT22;6803;45.264;5.468;2022-08-21T07:34:31;20.00;99.90
13462;DHT22;6803;45.264;5.468;2022-08-21T07:37:02;20.20;99.90
13462;DHT22;6803;45.264;5.468;2022-08-21T07:39:35;20.50;99.90
13462;DHT22;6803;45.264;5.468;2022-08-21T07:42:06;20.70;99.90
13462;DHT22;6803;45.264;5.468;2022-08-21T07:44:37;20.90;99.90
13462;DHT22;6803;45.264;5.468;2022-08-21T07:47:07;20.20;99.90
13462;DHT22;6803;45.264;5.468;2022-08-21T07:49:38;20.00;99.90
13462;DHT22;6803;45.264;5.468;2022-08-21T07:52:09;20.10;99.90
13462;DHT22;6803;45.264;5.468;2022-08-21T07:54:39;20.30;99.90
13462;DHT22;6803;45.264;5.468;2022-08-21T07:57:11;20.50;99.90
13462;DHT22;6803;45.264;5.468;2022-08-21T07:59:44;20.80;99.90
13462;DHT22;6803;45.264;5.468;2022-08-21T08:02:24;20.80;99.90
13462;DHT22;6803;45.264;5.468;2022-08-21T08:04:55;20.90;99.90
13462;DHT22;6803;45.264;5.468;2022-08-21T08:07:27;21.20;99.90
13462;DHT22;6803;45.264;5.468;2022-08-21T08:09:58;21.50;99.90
13462;DHT22;6803;45.264;5.468;2022-08-21T08:12:28;21.60;99.90
13462;DHT22;6803;45.264;5.468;2022-08-21T08:14:59;21.50;99.90
13462;DHT22;6803;45.264;5.468;2022-08-21T08:17:31;21.60;99.90
13462;DHT22;6803;45.264;5.468;2022-08-21T08:20:02;21.70;99.90
13462;DHT22;6803;45.264;5.468;2022-08-21T08:22:35;21.50;99.90
13462;DHT22;6803;45.264;5.468;2022-08-21T08:25:09;21.60;99.90
13462;DHT22;6803;45.264;5.468;2022-08-21T08:27:40;21.60;99.90
13462;DHT22;6803;45.264;5.468;2022-08-21T08:30:14;21.80;99.90
13462;DHT22;6803;45.264;5.468;2022-08-21T08:32:45;22.20;99.90
13462;DHT22;6803;45.264;5.468;2022-08-21T08:35:16;22.40;99.90
13462;DHT22;6803;45.264;5.468;2022-08-21T08:37:49;22.30;99.90
13462;DHT22;6803;45.264;5.468;2022-08-21T08:40:25;22.20;99.90
13462;DHT22;6803;45.264;5.468;2022-08-21T08:42:55;22.00;99.90
13462;DHT22;6803;45.264;5.468;2022-08-21T08:45:26;22.00;99.90
13462;DHT22;6803;45.264;5.468;2022-08-21T08:48:03;22.10;99.90
13462;DHT22;6803;45.264;5.468;2022-08-21T08:50:52;22.10;99.90
13462;DHT22;6803;45.264;5.468;2022-08-21T08:53:27;22.30;99.90
13462;DHT22;6803;45.264;5.468;2022-08-21T08:55:59;22.10;99.90
13462;DHT22;6803;45.264;5.468;2022-08-21T08:58:33;22.30;99.90
13462;DHT22;6803;45.264;5.468;2022-08-21T09:01:10;22.60;99.90
13462;DHT22;6803;45.264;5.468;2022-08-21T09:03:40;22.70;99.90
13462;DHT22;6803;45.264;5.468;2022-08-21T09:06:15;22.60;99.90
13462;DHT22;6803;45.264;5.468;2022-08-21T09:08:50;22.70;99.90
13462;DHT22;6803;45.264;5.468;2022-08-21T09:14:09;22.90;99.90
13462;DHT22;6803;45.264;5.468;2022-08-21T09:16:45;23.40;99.90
13462;DHT22;6803;45.264;5.468;2022-08-21T09:19:23;23.40;99.90
13462;DHT22;6803;45.264;5.468;2022-08-21T09:21:58;23.80;99.90
13462;DHT22;6803;45.264;5.468;2022-08-21T09:24:35;23.60;99.90
13462;DHT22;6803;45.264;5.468;2022-08-21T09:27:08;23.60;99.90
13462;DHT22;6803;45.264;5.468;2022-08-21T09:29:42;24.10;99.90
13462;DHT22;6803;45.264;5.468;2022-08-21T09:32:16;24.20;99.90
13462;DHT22;6803;45.264;5.468;2022-08-21T09:34:59;24.60;99.90
13462;DHT22;6803;45.264;5.468;2022-08-21T09:37:33;24.50;99.90
13462;DHT22;6803;45.264;5.468;2022-08-21T09:40:15;24.00;99.90
13462;DHT22;6803;45.264;5.468;2022-08-21T09:42:54;24.20;99.90
13462;DHT22;6803;45.264;5.468;2022-08-21T09:45:26;24.40;99.90
13462;DHT22;6803;45.264;5.468;2022-08-21T09:48:08;24.80;99.90
13462;DHT22;6803;45.264;5.468;2022-08-21T09:50:39;25.10;99.90
13462;DHT22;6803;45.264;5.468;2022-08-21T09:53:18;25.30;99.90
13462;DHT22;6803;45.264;5.468;2022-08-21T09:55:52;25.00;99.90
13462;DHT22;6803;45.264;5.468;2022-08-21T09:58:43;24.90;99.90
13462;DHT22;6803;45.264;5.468;2022-08-21T10:01:18;24.70;99.90
13462;DHT22;6803;45.264;5.468;2022-08-21T10:03:49;24.70;99.90
13462;DHT22;6803;45.264;5.468;2022-08-21T10:06:25;24.90;99.90
13462;DHT22;6803;45.264;5.468;2022-08-21T10:09:07;25.20;99.90
13462;DHT22;6803;45.264;5.468;2022-08-21T10:11:40;25.30;99.90
13462;DHT22;6803;45.264;5.468;2022-08-21T10:14:17;25.50;99.90
13462;DHT22;6803;45.264;5.468;2022-08-21T10:16:55;25.50;99.90
13462;DHT22;6803;45.264;5.468;2022-08-21T10:19:31;25.60;99.90
13462;DHT22;6803;45.264;5.468;2022-08-21T10:22:07;25.60;99.90
13462;DHT22;6803;45.264;5.468;2022-08-21T10:24:42;25.80;99.90
13462;DHT22;6803;45.264;5.468;2022-08-21T10:27:19;26.30;99.90
13462;DHT22;6803;45.264;5.468;2022-08-21T10:29:52;26.30;99.90
13462;DHT22;6803;45.264;5.468;2022-08-21T10:32:36;25.80;99.90
13462;DHT22;6803;45.264;5.468;2022-08-21T10:35:12;25.70;99.90
13462;DHT22;6803;45.264;5.468;2022-08-21T10:37:52;25.60;99.90
13462;DHT22;6803;45.264;5.468;2022-08-21T10:43:09;26.30;99.90
13462;DHT22;6803;45.264;5.468;2022-08-21T10:45:48;26.00;99.90
13462;DHT22;6803;45.264;5.468;2022-08-21T10:48:24;26.10;99.90
13462;DHT22;6803;45.264;5.468;2022-08-21T10:50:59;25.90;99.90
13462;DHT22;6803;45.264;5.468;2022-08-21T10:56:25;25.60;99.90
13462;DHT22;6803;45.264;5.468;2022-08-21T10:59:04;25.60;99.90
13462;DHT22;6803;45.264;5.468;2022-08-21T11:01:39;25.50;99.90
13462;DHT22;6803;45.264;5.468;2022-08-21T11:04:16;25.40;99.90
13462;DHT22;6803;45.264;5.468;2022-08-21T11:06:53;25.70;99.90
13462;DHT22;6803;45.264;5.468;2022-08-21T11:09:24;25.80;99.90
13462;DHT22;6803;45.264;5.468;2022-08-21T11:12:00;25.60;99.90
13462;DHT22;6803;45.264;5.468;2022-08-21T11:14:37;25.50;99.90
13462;DHT22;6803;45.264;5.468;2022-08-21T11:17:09;25.50;99.90
13462;DHT22;6803;45.264;5.468;2022-08-21T11:22:45;25.90;99.90
13462;DHT22;6803;45.264;5.468;2022-08-21T11:25:21;26.60;99.90
13462;DHT22;6803;45.264;5.468;2022-08-21T11:27:56;26.20;99.90
13462;DHT22;6803;45.264;5.468;2022-08-21T11:30:29;25.90;99.90
13462;DHT22;6803;45.264;5.468;2022-08-21T11:33:08;25.50;99.90
13462;DHT22;6803;45.264;5.468;2022-08-21T11:35:42;25.50;99.90
13462;DHT22;6803;45.264;5.468;2022-08-21T11:38:25;25.60;99.90
13462;DHT22;6803;45.264;5.468;2022-08-21T11:41:02;25.70;99.90
13462;DHT22;6803;45.264;5.468;2022-08-21T11:43:39;25.40;99.90
13462;DHT22;6803;45.264;5.468;2022-08-21T11:46:25;25.40;99.90
13462;DHT22;6803;45.264;5.468;2022-08-21T11:54:41;27.60;99.90
13462;DHT22;6803;45.264;5.468;2022-08-21T11:57:18;27.50;99.90
13462;DHT22;6803;45.264;5.468;2022-08-21T11:59:55;27.10;99.90
13462;DHT22;6803;45.264;5.468;2022-08-21T12:02:29;26.20;99.90
13462;DHT22;6803;45.264;5.468;2022-08-21T12:05:03;26.30;99.90
13462;DHT22;6803;45.264;5.468;2022-08-21T12:07:39;26.50;99.90
13462;DHT22;6803;45.264;5.468;2022-08-21T12:10:14;26.10;99.90
13462;DHT22;6803;45.264;5.468;2022-08-21T12:12:46;26.00;99.90
13462;DHT22;6803;45.264;5.468;2022-08-21T12:15:27;25.90;99.90
13462;DHT22;6803;45.264;5.468;2022-08-21T12:18:01;26.20;99.90
13462;DHT22;6803;45.264;5.468;2022-08-21T12:20:40;26.60;99.90
13462;DHT22;6803;45.264;5.468;2022-08-21T12:23:27;27.70;99.90
13462;DHT22;6803;45.264;5.468;2022-08-21T12:26:21;27.60;99.90
13462;DHT22;6803;45.264;5.468;2022-08-21T12:29:15;27.00;99.90
13462;DHT22;6803;45.264;5.468;2022-08-21T12:31:54;27.50;99.90
13462;DHT22;6803;45.264;5.468;2022-08-21T12:34:29;27.80;99.90
13462;DHT22;6803;45.264;5.468;2022-08-21T12:37:03;27.90;99.90
13462;DHT22;6803;45.264;5.468;2022-08-21T12:39:36;27.50;99.90
13462;DHT22;6803;45.264;5.468;2022-08-21T12:44:53;27.30;99.90
13462;DHT22;6803;45.264;5.468;2022-08-21T12:47:29;27.80;99.90
13462;DHT22;6803;45.264;5.468;2022-08-21T12:50:04;28.40;99.90
13462;DHT22;6803;45.264;5.468;2022-08-21T12:52:38;28.00;99.90
13462;DHT22;6803;45.264;5.468;2022-08-21T12:57:50;28.40;99.90
13462;DHT22;6803;45.264;5.468;2022-08-21T13:00:24;28.00;99.90
13462;DHT22;6803;45.264;5.468;2022-08-21T13:03:14;27.50;99.90
13462;DHT22;6803;45.264;5.468;2022-08-21T13:05:45;27.80;99.90
13462;DHT22;6803;45.264;5.468;2022-08-21T13:08:16;27.70;99.90
13462;DHT22;6803;45.264;5.468;2022-08-21T13:10:52;27.60;99.90
13462;DHT22;6803;45.264;5.468;2022-08-21T13:13:24;26.90;99.90
13462;DHT22;6803;45.264;5.468;2022-08-21T13:16:00;26.80;99.90
13462;DHT22;6803;45.264;5.468;2022-08-21T13:18:35;26.70;99.90
13462;DHT22;6803;45.264;5.468;2022-08-21T13:21:10;26.70;99.90
13462;DHT22;6803;45.264;5.468;2022-08-21T13:23:41;28.10;99.90
13462;DHT22;6803;45.264;5.468;2022-08-21T13:26:16;29.10;99.90
13462;DHT22;6803;45.264;5.468;2022-08-21T13:28:48;29.70;99.90
13462;DHT22;6803;45.264;5.468;2022-08-21T13:31:24;30.10;99.90
13462;DHT22;6803;45.264;5.468;2022-08-21T13:33:54;29.50;99.90
13462;DHT22;6803;45.264;5.468;2022-08-21T13:36:28;28.20;99.90
13462;DHT22;6803;45.264;5.468;2022-08-21T13:39:01;28.70;99.90
13462;DHT22;6803;45.264;5.468;2022-08-21T13:41:35;28.90;99.90
13462;DHT22;6803;45.264;5.468;2022-08-21T13:44:14;28.20;99.90
13462;DHT22;6803;45.264;5.468;2022-08-21T13:47:06;28.40;99.90
13462;DHT22;6803;45.264;5.468;2022-08-21T13:49:49;27.80;99.90
13462;DHT22;6803;45.264;5.468;2022-08-21T13:52:32;27.70;99.90
13462;DHT22;6803;45.264;5.468;2022-08-21T13:57:46;29.20;99.90
13462;DHT22;6803;45.264;5.468;2022-08-21T14:00:24;28.70;99.90
13462;DHT22;6803;45.264;5.468;2022-08-21T14:02:53;28.40;99.90
13462;DHT22;6803;45.264;5.468;2022-08-21T14:05:29;28.20;99.90
13462;DHT22;6803;45.264;5.468;2022-08-21T14:08:07;28.20;99.90
13462;DHT22;6803;45.264;5.468;2022-08-21T14:10:42;27.50;99.90
13462;DHT22;6803;45.264;5.468;2022-08-21T14:13:27;28.00;99.90
13462;DHT22;6803;45.264;5.468;2022-08-21T14:16:00;28.00;99.90
13462;DHT22;6803;45.264;5.468;2022-08-21T14:18:31;27.60;99.90
13462;DHT22;6803;45.264;5.468;2022-08-21T14:21:07;27.30;99.90
13462;DHT22;6803;45.264;5.468;2022-08-21T14:23:40;27.10;99.90
13462;DHT22;6803;45.264;5.468;2022-08-21T14:26:11;27.30;99.90
13462;DHT22;6803;45.264;5.468;2022-08-21T14:28:43;27.80;99.90
13462;DHT22;6803;45.264;5.468;2022-08-21T14:31:18;28.10;99.90
13462;DHT22;6803;45.264;5.468;2022-08-21T14:33:49;29.00;99.90
13462;DHT22;6803;45.264;5.468;2022-08-21T14:36:20;30.00;99.90
13462;DHT22;6803;45.264;5.468;2022-08-21T14:38:51;29.80;99.80
13462;DHT22;6803;45.264;5.468;2022-08-21T14:41:24;30.50;99.90
13462;DHT22;6803;45.264;5.468;2022-08-21T14:43:57;30.80;98.30
13462;DHT22;6803;45.264;5.468;2022-08-21T14:46:31;31.30;99.90
13462;DHT22;6803;45.264;5.468;2022-08-21T14:49:03;31.10;96.80
13462;DHT22;6803;45.264;5.468;2022-08-21T14:54:12;30.20;98.60
13462;DHT22;6803;45.264;5.468;2022-08-21T14:56:43;29.20;98.90
13462;DHT22;6803;45.264;5.468;2022-08-21T14:59:14;28.40;99.90
13462;DHT22;6803;45.264;5.468;2022-08-21T15:01:44;28.00;99.90
13462;DHT22;6803;45.264;5.468;2022-08-21T15:04:16;28.00;99.90
13462;DHT22;6803;45.264;5.468;2022-08-21T15:06:46;27.80;99.50
13462;DHT22;6803;45.264;5.468;2022-08-21T15:09:17;27.90;99.90
13462;DHT22;6803;45.264;5.468;2022-08-21T15:11:48;28.20;99.90
13462;DHT22;6803;45.264;5.468;2022-08-21T15:14:21;27.60;99.90
13462;DHT22;6803;45.264;5.468;2022-08-21T15:16:53;27.40;99.90
13462;DHT22;6803;45.264;5.468;2022-08-21T15:19:24;27.40;99.90
13462;DHT22;6803;45.264;5.468;2022-08-21T15:21:57;27.60;99.90
13462;DHT22;6803;45.264;5.468;2022-08-21T15:24:29;27.60;99.90
13462;DHT22;6803;45.264;5.468;2022-08-21T15:27:02;27.30;99.90
13462;DHT22;6803;45.264;5.468;2022-08-21T15:29:34;26.80;99.90
13462;DHT22;6803;45.264;5.468;2022-08-21T15:32:16;26.80;99.90
13462;DHT22;6803;45.264;5.468;2022-08-21T15:34:47;26.70;99.90
13462;DHT22;6803;45.264;5.468;2022-08-21T15:37:19;26.70;99.90
13462;DHT22;6803;45.264;5.468;2022-08-21T15:39:51;26.60;99.90
13462;DHT22;6803;45.264;5.468;2022-08-21T15:42:23;26.70;99.90
13462;DHT22;6803;45.264;5.468;2022-08-21T15:44:56;26.80;99.90
13462;DHT22;6803;45.264;5.468;2022-08-21T15:47:29;26.70;99.90
13462;DHT22;6803;45.264;5.468;2022-08-21T15:50:02;26.60;99.90
13462;DHT22;6803;45.264;5.468;2022-08-21T15:52:33;26.50;99.90
13462;DHT22;6803;45.264;5.468;2022-08-21T15:55:05;26.30;99.90
13462;DHT22;6803;45.264;5.468;2022-08-21T15:57:37;26.30;99.90
13462;DHT22;6803;45.264;5.468;2022-08-21T16:00:17;26.10;99.90
13462;DHT22;6803;45.264;5.468;2022-08-21T16:02:49;26.00;99.90
13462;DHT22;6803;45.264;5.468;2022-08-21T16:05:21;25.80;99.90
13462;DHT22;6803;45.264;5.468;2022-08-21T16:07:52;25.80;99.90
13462;DHT22;6803;45.264;5.468;2022-08-21T16:10:24;25.50;99.90
13462;DHT22;6803;45.264;5.468;2022-08-21T16:13:01;25.50;99.90
13462;DHT22;6803;45.264;5.468;2022-08-21T16:15:31;25.20;99.90
13462;DHT22;6803;45.264;5.468;2022-08-21T16:18:02;25.00;99.90
13462;DHT22;6803;45.264;5.468;2022-08-21T16:20:33;24.70;99.90
13462;DHT22;6803;45.264;5.468;2022-08-21T16:23:04;24.60;99.90
13462;DHT22;6803;45.264;5.468;2022-08-21T16:25:37;24.60;99.90
13462;DHT22;6803;45.264;5.468;2022-08-21T16:28:10;24.60;99.90
13462;DHT22;6803;45.264;5.468;2022-08-21T16:30:44;24.60;99.90
13462;DHT22;6803;45.264;5.468;2022-08-21T16:33:20;24.60;99.90
13462;DHT22;6803;45.264;5.468;2022-08-21T16:35:53;24.70;99.90
13462;DHT22;6803;45.264;5.468;2022-08-21T16:38:24;24.80;99.90
13462;DHT22;6803;45.264;5.468;2022-08-21T16:40:55;24.80;99.90
13462;DHT22;6803;45.264;5.468;2022-08-21T16:43:29;24.80;99.90
13462;DHT22;6803;45.264;5.468;2022-08-21T16:46:00;24.70;99.90
13462;DHT22;6803;45.264;5.468;2022-08-21T16:48:32;24.70;99.90
13462;DHT22;6803;45.264;5.468;2022-08-21T16:51:05;24.60;99.90